createdAt,value
2022-11-27T00:00:42.290Z,8.46
2022-11-27T00:01:46.550Z,8.46
2022-11-27T00:02:50.929Z,8.47
2022-11-27T00:03:55.273Z,8.47
2022-11-27T00:04:59.347Z,8.47
2022-11-27T00:06:03.485Z,8.48
2022-11-27T00:07:07.823Z,8.48
2022-11-27T00:08:12.012Z,8.48
2022-11-27T00:09:16.347Z,8.48
2022-11-27T00:10:20.526Z,8.49
2022-11-27T00:11:24.697Z,8.49
2022-11-27T00:12:29.022Z,8.50
2022-11-27T00:13:33.275Z,8.50
2022-11-27T00:14:37.625Z,8.51
2022-11-27T00:15:41.883Z,8.51
2022-11-27T00:16:46.128Z,8.52
2022-11-27T00:17:50.415Z,8.52
2022-11-27T00:18:54.564Z,8.52
2022-11-27T00:19:58.884Z,8.52
2022-11-27T00:21:03.145Z,8.51
2022-11-27T00:22:07.438Z,8.52
2022-11-27T00:23:11.652Z,8.52
2022-11-27T00:24:15.923Z,8.51
2022-11-27T00:25:20.187Z,8.51
2022-11-27T00:26:24.375Z,8.52
2022-11-27T00:27:28.602Z,8.52
2022-11-27T00:28:32.908Z,8.52
2022-11-27T00:29:37.188Z,8.52
2022-11-27T00:30:41.446Z,8.51
2022-11-27T00:31:45.798Z,8.52
2022-11-27T00:32:50.056Z,8.51
2022-11-27T00:33:54.345Z,8.51
2022-11-27T00:34:58.580Z,8.51
2022-11-27T00:36:02.763Z,8.51
2022-11-27T00:37:07.201Z,8.51
2022-11-27T00:38:11.425Z,8.51
2022-11-27T00:39:15.561Z,8.51
2022-11-27T00:40:19.971Z,8.51
2022-11-27T00:41:24.202Z,8.51
2022-11-27T00:42:28.370Z,8.50
2022-11-27T00:43:43.260Z,8.50
2022-11-27T00:44:37.226Z,8.50
2022-11-27T00:45:41.082Z,8.50
2022-11-27T00:46:45.622Z,8.50
2022-11-27T00:47:49.688Z,8.50
2022-11-27T00:48:53.987Z,8.50
2022-11-27T00:49:58.253Z,8.50
2022-11-27T00:51:02.513Z,8.50
2022-11-27T00:52:06.769Z,8.50
2022-11-27T00:53:10.974Z,8.50
2022-11-27T00:54:15.293Z,8.50
2022-11-27T00:55:19.668Z,8.50
2022-11-27T00:56:23.905Z,8.49
2022-11-27T00:57:28.161Z,8.49
2022-11-27T00:58:32.316Z,8.49
2022-11-27T00:59:36.519Z,8.48
2022-11-27T01:00:40.869Z,8.47
2022-11-27T01:01:45.078Z,8.46
2022-11-27T01:02:49.460Z,8.45
2022-11-27T01:03:53.660Z,8.44
2022-11-27T01:04:57.902Z,8.42
2022-11-27T01:06:02.115Z,8.40
2022-11-27T01:07:06.290Z,8.38
2022-11-27T01:08:10.586Z,8.36
2022-11-27T01:09:14.878Z,8.34
2022-11-27T01:10:19.246Z,8.32
2022-11-27T01:11:23.377Z,8.31
2022-11-27T01:12:27.553Z,8.31
2022-11-27T01:13:31.785Z,8.32
2022-11-27T01:14:36.093Z,8.33
2022-11-27T01:15:40.386Z,8.35
2022-11-27T01:16:44.529Z,8.36
2022-11-27T01:17:48.746Z,8.36
2022-11-27T01:18:52.885Z,8.36
2022-11-27T01:19:57.162Z,8.35
2022-11-27T01:21:01.424Z,8.35
2022-11-27T01:22:05.597Z,8.33
2022-11-27T01:23:09.931Z,8.33
2022-11-27T01:24:13.982Z,8.33
2022-11-27T01:25:20.054Z,8.32
2022-11-27T01:26:22.636Z,8.31
2022-11-27T01:27:26.855Z,8.32
2022-11-27T01:28:31.202Z,8.32
2022-11-27T01:29:35.417Z,8.31
2022-11-27T01:30:39.557Z,8.31
2022-11-27T01:31:43.835Z,8.32
2022-11-27T01:32:48.088Z,8.32
2022-11-27T01:33:52.375Z,8.32
2022-11-27T01:34:56.611Z,8.32
2022-11-27T01:36:00.701Z,8.31
2022-11-27T01:37:04.991Z,8.30
2022-11-27T01:38:09.314Z,8.28
2022-11-27T01:39:13.439Z,8.29
2022-11-27T01:40:17.772Z,8.28
2022-11-27T01:41:22.106Z,8.28
2022-11-27T01:42:26.149Z,8.28
2022-11-27T01:43:30.600Z,8.27
2022-11-27T01:44:34.823Z,8.28
2022-11-27T01:45:39.087Z,8.27
2022-11-27T01:46:43.419Z,8.28
2022-11-27T01:47:47.366Z,8.29
2022-11-27T01:48:51.653Z,8.30
2022-11-27T01:49:55.851Z,8.31
2022-11-27T01:51:00.082Z,8.33
2022-11-27T01:52:04.301Z,8.34
2022-11-27T01:53:08.539Z,8.35
2022-11-27T01:54:12.922Z,8.36
2022-11-27T01:55:17.128Z,8.37
2022-11-27T01:56:21.416Z,8.38
2022-11-27T01:57:25.697Z,8.38
2022-11-27T01:58:29.863Z,8.39
2022-11-27T01:59:34.083Z,8.40
2022-11-27T02:00:38.437Z,8.40
2022-11-27T02:01:42.700Z,8.40
2022-11-27T02:02:46.756Z,8.41
2022-11-27T02:03:51.126Z,8.42
2022-11-27T02:04:55.452Z,8.42
2022-11-27T02:05:59.571Z,8.42
2022-11-27T02:07:03.740Z,8.42
2022-11-27T02:08:08.084Z,8.42
2022-11-27T02:09:12.354Z,8.43
2022-11-27T02:10:16.598Z,8.43
2022-11-27T02:11:20.685Z,8.42
2022-11-27T02:12:25.465Z,8.43
2022-11-27T02:13:29.428Z,8.43
2022-11-27T02:14:33.619Z,8.43
2022-11-27T02:15:37.838Z,8.43
2022-11-27T02:16:42.076Z,8.44
2022-11-27T02:17:46.329Z,8.45
2022-11-27T02:18:50.620Z,8.45
2022-11-27T02:19:54.984Z,8.45
2022-11-27T02:20:59.199Z,8.46
2022-11-27T02:22:03.261Z,8.46
2022-11-27T02:23:07.602Z,8.46
2022-11-27T02:24:11.848Z,8.46
2022-11-27T02:25:16.096Z,8.45
2022-11-27T02:26:20.227Z,8.44
2022-11-27T02:27:24.558Z,8.44
2022-11-27T02:28:28.843Z,8.43
2022-11-27T02:29:33.003Z,8.43
2022-11-27T02:30:37.326Z,8.42
2022-11-27T02:31:41.749Z,8.42
2022-11-27T02:32:45.853Z,8.41
2022-11-27T02:33:50.157Z,8.39
2022-11-27T02:34:54.385Z,8.36
2022-11-27T02:35:58.434Z,8.33
2022-11-27T02:37:02.713Z,8.31
2022-11-27T02:38:07.024Z,8.31
2022-11-27T02:39:11.172Z,8.31
2022-11-27T02:40:15.384Z,8.31
2022-11-27T02:41:19.688Z,8.31
2022-11-27T02:42:23.934Z,8.31
2022-11-27T02:43:28.019Z,8.31
2022-11-27T02:44:32.338Z,8.31
2022-11-27T02:45:36.587Z,8.31
2022-11-27T02:46:41.029Z,8.31
2022-11-27T02:47:45.138Z,8.32
2022-11-27T02:48:49.376Z,8.32
2022-11-27T02:49:53.678Z,8.32
2022-11-27T02:50:57.825Z,8.33
2022-11-27T02:52:01.975Z,8.34
2022-11-27T02:53:06.418Z,8.34
2022-11-27T02:54:10.630Z,8.34
2022-11-27T02:55:14.926Z,8.35
2022-11-27T02:56:19.177Z,8.34
2022-11-27T02:57:23.423Z,8.33
2022-11-27T02:58:27.816Z,8.32
2022-11-27T02:59:31.826Z,8.32
2022-11-27T03:00:36.085Z,8.32
2022-11-27T03:01:40.361Z,8.32
2022-11-27T03:02:44.575Z,8.32
2022-11-27T03:03:48.799Z,8.32
2022-11-27T03:04:52.975Z,8.33
2022-11-27T03:05:57.309Z,8.33
2022-11-27T03:07:01.618Z,8.32
2022-11-27T03:08:05.856Z,8.33
2022-11-27T03:09:10.062Z,8.33
2022-11-27T03:10:14.322Z,8.33
2022-11-27T03:11:18.588Z,8.33
2022-11-27T03:12:22.819Z,8.34
2022-11-27T03:13:26.969Z,8.34
2022-11-27T03:14:31.327Z,8.35
2022-11-27T03:15:35.508Z,8.35
2022-11-27T03:16:39.672Z,8.35
2022-11-27T03:17:43.944Z,8.35
2022-11-27T03:18:48.111Z,8.35
2022-11-27T03:19:52.382Z,8.35
2022-11-27T03:20:56.490Z,8.35
2022-11-27T03:22:00.833Z,8.35
2022-11-27T03:23:04.964Z,8.35
2022-11-27T03:24:09.171Z,8.35
2022-11-27T03:25:13.568Z,8.35
2022-11-27T03:26:17.792Z,8.34
2022-11-27T03:27:22.023Z,8.34
2022-11-27T03:28:26.161Z,8.34
2022-11-27T03:29:30.465Z,8.34
2022-11-27T03:30:34.866Z,8.34
2022-11-27T03:31:39.040Z,8.35
2022-11-27T03:32:43.278Z,8.35
2022-11-27T03:33:47.649Z,8.34
2022-11-27T03:34:51.828Z,8.33
2022-11-27T03:35:56.135Z,8.33
2022-11-27T03:37:00.358Z,8.34
2022-11-27T03:38:04.524Z,8.34
2022-11-27T03:39:08.823Z,8.34
2022-11-27T03:40:13.070Z,8.35
2022-11-27T03:41:18.187Z,8.35
2022-11-27T03:42:22.079Z,8.35
2022-11-27T03:43:26.226Z,8.35
2022-11-27T03:44:30.498Z,8.35
2022-11-27T03:45:34.770Z,8.35
2022-11-27T03:46:39.024Z,8.35
2022-11-27T03:47:43.226Z,8.36
2022-11-27T03:48:47.421Z,8.36
2022-11-27T03:49:51.673Z,8.37
2022-11-27T03:50:55.861Z,8.36
2022-11-27T03:52:00.080Z,8.36
2022-11-27T03:53:04.307Z,8.35
2022-11-27T03:54:08.624Z,8.34
2022-11-27T03:55:12.900Z,8.34
2022-11-27T03:56:17.093Z,8.34
2022-11-27T03:57:21.307Z,8.34
2022-11-27T03:58:25.637Z,8.33
2022-11-27T03:59:29.816Z,8.33
2022-11-27T04:00:33.938Z,8.33
2022-11-27T04:01:38.449Z,8.34
2022-11-27T04:02:42.632Z,8.34
2022-11-27T04:03:46.930Z,8.34
2022-11-27T04:04:51.029Z,8.35
2022-11-27T04:05:58.434Z,8.35
2022-11-27T04:07:01.563Z,8.36
2022-11-27T04:08:05.991Z,8.35
2022-11-27T04:09:10.244Z,8.36
2022-11-27T04:10:14.596Z,8.36
2022-11-27T04:11:18.791Z,8.36
2022-11-27T04:12:22.943Z,8.37
2022-11-27T04:13:27.153Z,8.36
2022-11-27T04:14:31.352Z,8.37
2022-11-27T04:15:35.576Z,8.37
2022-11-27T04:16:39.883Z,8.37
2022-11-27T04:17:44.082Z,8.37
2022-11-27T04:18:48.481Z,8.38
2022-11-27T04:19:52.730Z,8.37
2022-11-27T04:20:56.936Z,8.37
2022-11-27T04:22:01.079Z,8.36
2022-11-27T04:23:05.316Z,8.36
2022-11-27T04:24:12.691Z,8.35
2022-11-27T04:25:16.121Z,8.35
2022-11-27T04:26:20.361Z,8.35
2022-11-27T04:27:24.484Z,8.35
2022-11-27T04:28:28.804Z,8.35
2022-11-27T04:29:32.964Z,8.35
2022-11-27T04:30:37.200Z,8.35
2022-11-27T04:31:41.594Z,8.35
2022-11-27T04:32:45.706Z,8.35
2022-11-27T04:33:49.901Z,8.34
2022-11-27T04:34:54.370Z,8.33
2022-11-27T04:35:58.403Z,8.33
2022-11-27T04:37:02.716Z,8.33
2022-11-27T04:38:06.856Z,8.33
2022-11-27T04:39:11.173Z,8.32
2022-11-27T04:40:15.458Z,8.32
2022-11-27T04:41:19.618Z,8.31
2022-11-27T04:42:23.804Z,8.31
2022-11-27T04:43:28.112Z,8.32
2022-11-27T04:44:32.400Z,8.31
2022-11-27T04:45:36.540Z,8.31
2022-11-27T04:46:40.794Z,8.31
2022-11-27T04:47:45.090Z,8.31
2022-11-27T04:48:49.332Z,8.31
2022-11-27T04:49:53.608Z,8.31
2022-11-27T04:50:58.013Z,8.31
2022-11-27T04:52:02.057Z,8.31
2022-11-27T04:53:06.255Z,8.30
2022-11-27T04:54:10.680Z,8.30
2022-11-27T04:55:14.815Z,8.29
2022-11-27T04:56:19.183Z,8.29
2022-11-27T04:57:23.424Z,8.28
2022-11-27T04:58:27.673Z,8.27
2022-11-27T04:59:31.928Z,8.26
2022-11-27T05:00:36.248Z,8.25
2022-11-27T05:01:40.527Z,8.25
2022-11-27T05:02:44.845Z,8.23
2022-11-27T05:03:48.935Z,8.23
2022-11-27T05:04:53.122Z,8.22
2022-11-27T05:05:57.425Z,8.21
2022-11-27T05:07:01.844Z,8.21
2022-11-27T05:08:05.975Z,8.20
2022-11-27T05:09:10.245Z,8.19
2022-11-27T05:10:14.410Z,8.19
2022-11-27T05:11:18.636Z,8.17
2022-11-27T05:12:22.962Z,8.15
2022-11-27T05:13:27.245Z,8.14
2022-11-27T05:14:31.377Z,8.13
2022-11-27T05:15:35.683Z,8.13
2022-11-27T05:16:39.897Z,8.13
2022-11-27T05:17:44.147Z,8.13
2022-11-27T05:18:48.294Z,8.13
2022-11-27T05:19:52.656Z,8.12
2022-11-27T05:20:56.925Z,8.11
2022-11-27T05:22:01.251Z,8.10
2022-11-27T05:23:05.498Z,8.09
2022-11-27T05:24:09.770Z,8.08
2022-11-27T05:25:13.974Z,8.07
2022-11-27T05:26:18.304Z,8.07
2022-11-27T05:27:22.535Z,8.06
2022-11-27T05:28:27.226Z,8.05
2022-11-27T05:29:30.953Z,8.05
2022-11-27T05:30:35.272Z,8.04
2022-11-27T05:31:39.719Z,8.04
2022-11-27T05:32:43.836Z,8.04
2022-11-27T05:33:47.994Z,8.03
2022-11-27T05:34:52.252Z,8.03
2022-11-27T05:35:56.427Z,8.02
2022-11-27T05:37:00.751Z,8.02
2022-11-27T05:38:04.994Z,8.02
2022-11-27T05:39:09.300Z,8.02
2022-11-27T05:40:13.549Z,8.02
2022-11-27T05:41:17.758Z,8.02
2022-11-27T05:42:21.983Z,8.02
2022-11-27T05:43:26.240Z,8.01
2022-11-27T05:44:33.418Z,8.01
2022-11-27T05:45:36.676Z,8.00
2022-11-27T05:46:40.925Z,7.97
2022-11-27T05:47:45.106Z,7.97
2022-11-27T05:48:49.417Z,7.96
2022-11-27T05:49:53.622Z,7.96
2022-11-27T05:50:57.794Z,7.96
2022-11-27T05:52:02.154Z,7.97
2022-11-27T05:53:06.402Z,7.96
2022-11-27T05:54:10.556Z,7.97
2022-11-27T05:55:14.953Z,7.96
2022-11-27T05:56:18.975Z,7.96
2022-11-27T05:57:23.302Z,7.95
2022-11-27T05:58:27.606Z,7.95
2022-11-27T05:59:31.731Z,7.94
2022-11-27T06:00:35.980Z,7.94
2022-11-27T06:01:40.402Z,7.93
2022-11-27T06:02:44.599Z,7.91
2022-11-27T06:03:49.011Z,7.91
2022-11-27T06:04:53.051Z,7.90
2022-11-27T06:05:57.299Z,7.90
2022-11-27T06:07:01.560Z,7.89
2022-11-27T06:08:05.827Z,7.87
2022-11-27T06:09:13.090Z,7.87
2022-11-27T06:10:14.378Z,7.86
2022-11-27T06:11:18.763Z,7.85
2022-11-27T06:12:22.893Z,7.84
2022-11-27T06:13:27.091Z,7.84
2022-11-27T06:14:31.272Z,7.84
2022-11-27T06:15:35.684Z,7.84
2022-11-27T06:16:39.848Z,7.83
2022-11-27T06:17:44.129Z,7.82
2022-11-27T06:18:48.399Z,7.82
2022-11-27T06:19:52.557Z,7.81
2022-11-27T06:20:56.783Z,7.80
2022-11-27T06:22:01.067Z,7.79
2022-11-27T06:23:05.272Z,7.79
2022-11-27T06:24:09.413Z,7.79
2022-11-27T06:25:13.692Z,7.79
2022-11-27T06:26:17.979Z,7.79
2022-11-27T06:27:22.390Z,7.78
2022-11-27T06:28:26.548Z,7.77
2022-11-27T06:29:30.804Z,7.77
2022-11-27T06:30:35.038Z,7.77
2022-11-27T06:31:39.343Z,7.75
2022-11-27T06:32:43.521Z,7.74
2022-11-27T06:33:47.803Z,7.73
2022-11-27T06:34:52.082Z,7.71
2022-11-27T06:35:56.352Z,7.68
2022-11-27T06:37:00.571Z,7.67
2022-11-27T06:38:04.865Z,7.65
2022-11-27T06:39:09.034Z,7.64
2022-11-27T06:40:13.341Z,7.64
2022-11-27T06:41:17.601Z,7.62
2022-11-27T06:42:21.864Z,7.61
2022-11-27T06:43:26.183Z,7.60
2022-11-27T06:44:30.243Z,7.58
2022-11-27T06:45:34.656Z,7.57
2022-11-27T06:46:38.827Z,7.57
2022-11-27T06:47:42.979Z,7.55
2022-11-27T06:48:47.208Z,7.54
2022-11-27T06:49:51.495Z,7.53
2022-11-27T06:50:55.728Z,7.51
2022-11-27T06:51:59.931Z,7.49
2022-11-27T06:53:04.306Z,7.49
2022-11-27T06:54:08.499Z,7.47
2022-11-27T06:55:12.720Z,7.43
2022-11-27T06:56:16.926Z,7.38
2022-11-27T06:57:21.198Z,7.31
2022-11-27T06:58:30.880Z,7.24
2022-11-27T06:59:29.823Z,7.16
2022-11-27T07:00:34.038Z,7.09
2022-11-27T07:01:38.223Z,7.01
2022-11-27T07:02:42.466Z,6.95
2022-11-27T07:03:46.721Z,6.88
2022-11-27T07:04:50.949Z,6.83
2022-11-27T07:05:55.235Z,6.78
2022-11-27T07:06:59.464Z,6.73
2022-11-27T07:08:03.781Z,6.69
2022-11-27T07:09:07.860Z,6.68
2022-11-27T07:10:12.117Z,6.67
2022-11-27T07:11:16.323Z,6.66
2022-11-27T07:12:20.584Z,6.63
2022-11-27T07:13:24.801Z,6.60
2022-11-27T07:14:29.068Z,6.56
2022-11-27T07:15:33.332Z,6.53
2022-11-27T07:16:37.533Z,6.50
2022-11-27T07:17:41.764Z,6.46
2022-11-27T07:18:45.938Z,6.42
2022-11-27T07:19:50.074Z,6.38
2022-11-27T07:20:56.573Z,6.34
2022-11-27T07:21:58.631Z,6.31
2022-11-27T07:23:02.884Z,6.30
2022-11-27T07:24:07.146Z,6.28
2022-11-27T07:25:11.369Z,6.26
2022-11-27T07:26:15.620Z,6.26
2022-11-27T07:27:19.868Z,6.27
2022-11-27T07:28:24.067Z,6.29
2022-11-27T07:29:28.290Z,6.30
2022-11-27T07:30:32.520Z,6.31
2022-11-27T07:31:36.933Z,6.32
2022-11-27T07:32:40.897Z,6.33
2022-11-27T07:33:45.199Z,6.32
2022-11-27T07:34:49.476Z,6.31
2022-11-27T07:35:53.734Z,6.31
2022-11-27T07:36:57.948Z,6.32
2022-11-27T07:38:02.188Z,6.32
2022-11-27T07:39:06.447Z,6.33
2022-11-27T07:40:10.656Z,6.34
2022-11-27T07:41:14.872Z,6.34
2022-11-27T07:43:23.380Z,6.32
2022-11-27T07:44:27.604Z,6.28
2022-11-27T07:45:31.907Z,6.24
2022-11-27T07:46:36.095Z,6.19
2022-11-27T07:47:40.496Z,6.16
2022-11-27T07:48:44.572Z,6.13
2022-11-27T07:49:48.828Z,6.13
2022-11-27T07:50:53.081Z,6.13
2022-11-27T07:51:57.333Z,6.15
2022-11-27T07:53:01.426Z,6.17
2022-11-27T07:54:05.737Z,6.19
2022-11-27T07:55:09.963Z,6.22
2022-11-27T07:56:14.241Z,6.24
2022-11-27T07:57:18.360Z,6.26
2022-11-27T07:58:22.656Z,6.28
2022-11-27T07:59:26.881Z,6.30
2022-11-27T08:00:31.145Z,6.32
2022-11-27T08:01:35.442Z,6.33
2022-11-27T08:02:39.663Z,6.34
2022-11-27T08:03:44.004Z,6.35
2022-11-27T08:04:48.272Z,6.35
2022-11-27T08:05:52.351Z,6.36
2022-11-27T08:06:56.586Z,6.38
2022-11-27T08:08:00.938Z,6.39
2022-11-27T08:09:05.097Z,6.41
2022-11-27T08:10:09.340Z,6.42
2022-11-27T08:11:13.613Z,6.43
2022-11-27T08:12:17.840Z,6.45
2022-11-27T08:13:22.080Z,6.47
2022-11-27T08:14:26.329Z,6.49
2022-11-27T08:15:30.540Z,6.49
2022-11-27T08:16:34.827Z,6.51
2022-11-27T08:17:39.039Z,6.52
2022-11-27T08:18:43.350Z,6.54
2022-11-27T08:19:47.757Z,6.56
2022-11-27T08:20:51.884Z,6.58
2022-11-27T08:21:56.108Z,6.61
2022-11-27T08:23:02.967Z,6.64
2022-11-27T08:24:04.582Z,6.67
2022-11-27T08:25:08.843Z,6.70
2022-11-27T08:26:13.102Z,6.73
2022-11-27T08:27:17.359Z,6.75
2022-11-27T08:28:21.590Z,6.78
2022-11-27T08:29:29.916Z,6.82
2022-11-27T08:30:30.101Z,6.85
2022-11-27T08:31:34.350Z,6.87
2022-11-27T08:32:38.560Z,6.90
2022-11-27T08:33:42.834Z,6.93
2022-11-27T08:34:47.059Z,6.95
2022-11-27T08:35:51.330Z,6.97
2022-11-27T08:36:55.512Z,7.00
2022-11-27T08:37:59.754Z,7.01
2022-11-27T08:39:04.013Z,7.01
2022-11-27T08:40:08.277Z,7.01
2022-11-27T08:41:12.494Z,7.00
2022-11-27T08:42:16.757Z,7.00
2022-11-27T08:43:20.972Z,7.01
2022-11-27T08:44:25.203Z,7.02
2022-11-27T08:45:29.540Z,7.04
2022-11-27T08:46:33.728Z,7.07
2022-11-27T08:47:37.961Z,7.09
2022-11-27T08:48:42.232Z,7.11
2022-11-27T08:49:46.574Z,7.13
2022-11-27T08:50:50.727Z,7.14
2022-11-27T08:52:00.861Z,7.14
2022-11-27T08:52:59.297Z,7.13
2022-11-27T08:54:03.461Z,7.13
2022-11-27T08:55:07.651Z,7.12
2022-11-27T08:56:11.862Z,7.13
2022-11-27T08:57:16.132Z,7.14
2022-11-27T08:58:20.416Z,7.14
2022-11-27T08:59:24.672Z,7.13
2022-11-27T09:00:28.947Z,7.11
2022-11-27T09:01:36.293Z,7.10
2022-11-27T09:02:39.381Z,7.10
2022-11-27T09:03:43.578Z,7.12
2022-11-27T09:04:47.872Z,7.13
2022-11-27T09:05:52.022Z,7.14
2022-11-27T09:06:58.773Z,7.15
2022-11-27T09:08:00.567Z,7.15
2022-11-27T09:09:04.908Z,7.16
2022-11-27T09:10:09.078Z,7.15
2022-11-27T09:11:13.248Z,7.14
2022-11-27T09:12:17.566Z,7.13
2022-11-27T09:13:21.823Z,7.13
2022-11-27T09:14:26.067Z,7.12
2022-11-27T09:15:30.211Z,7.11
2022-11-27T09:16:34.530Z,7.12
2022-11-27T09:17:38.814Z,7.15
2022-11-27T09:18:43.036Z,7.17
2022-11-27T09:19:47.254Z,7.17
2022-11-27T09:20:51.518Z,7.19
2022-11-27T09:21:55.761Z,7.21
2022-11-27T09:23:00.027Z,7.21
2022-11-27T09:24:04.233Z,7.22
2022-11-27T09:25:08.590Z,7.23
2022-11-27T09:26:12.717Z,7.24
2022-11-27T09:27:16.955Z,7.26
2022-11-27T09:28:21.065Z,7.27
2022-11-27T09:29:25.400Z,7.29
2022-11-27T09:30:29.655Z,7.31
2022-11-27T09:31:33.920Z,7.32
2022-11-27T09:32:38.030Z,7.34
2022-11-27T09:33:42.336Z,7.37
2022-11-27T09:34:46.647Z,7.40
2022-11-27T09:35:50.855Z,7.42
2022-11-27T09:36:55.068Z,7.43
2022-11-27T09:37:59.333Z,7.46
2022-11-27T09:39:03.477Z,7.48
2022-11-27T09:40:07.768Z,7.49
2022-11-27T09:41:12.136Z,7.51
2022-11-27T09:42:16.267Z,7.49
2022-11-27T09:43:20.507Z,7.47
2022-11-27T09:44:24.649Z,7.47
2022-11-27T09:45:29.007Z,7.48
2022-11-27T09:46:33.194Z,7.46
2022-11-27T09:47:41.434Z,7.46
2022-11-27T09:48:41.696Z,7.45
2022-11-27T09:49:45.929Z,7.41
2022-11-27T09:50:53.079Z,7.41
2022-11-27T09:51:56.477Z,7.42
2022-11-27T09:53:00.606Z,7.44
2022-11-27T09:54:04.862Z,7.44
2022-11-27T09:55:08.982Z,7.45
2022-11-27T09:56:13.331Z,7.46
2022-11-27T09:57:17.633Z,7.49
2022-11-27T09:58:21.685Z,7.51
2022-11-27T09:59:26.030Z,7.51
2022-11-27T10:00:30.259Z,7.53
2022-11-27T10:01:44.169Z,7.54
2022-11-27T10:02:38.922Z,7.56
2022-11-27T10:03:43.053Z,7.58
2022-11-27T10:05:12.115Z,7.59
2022-11-27T10:05:51.526Z,7.59
2022-11-27T10:06:55.768Z,7.60
2022-11-27T10:08:06.075Z,7.61
2022-11-27T10:09:04.275Z,7.62
2022-11-27T10:10:08.557Z,7.62
2022-11-27T10:11:12.809Z,7.62
2022-11-27T10:12:17.076Z,7.62
2022-11-27T10:13:21.454Z,7.62
2022-11-27T10:14:25.606Z,7.63
2022-11-27T10:15:29.852Z,7.64
2022-11-27T10:16:34.137Z,7.64
2022-11-27T10:17:38.326Z,7.65
2022-11-27T10:18:42.631Z,7.66
2022-11-27T10:19:46.877Z,7.67
2022-11-27T10:20:51.121Z,7.68
2022-11-27T10:21:55.381Z,7.69
2022-11-27T10:22:59.623Z,7.69
2022-11-27T10:24:03.852Z,7.70
2022-11-27T10:25:11.000Z,7.72
2022-11-27T10:26:14.319Z,7.73
2022-11-27T10:27:18.528Z,7.74
2022-11-27T10:28:22.803Z,7.75
2022-11-27T10:29:27.186Z,7.76
2022-11-27T10:30:31.242Z,7.77
2022-11-27T10:31:35.508Z,7.78
2022-11-27T10:32:56.306Z,7.80
2022-11-27T10:33:43.874Z,7.81
2022-11-27T10:34:48.195Z,7.82
2022-11-27T10:35:52.375Z,7.82
2022-11-27T10:36:56.695Z,7.83
2022-11-27T10:38:05.292Z,7.83
2022-11-27T10:39:05.102Z,7.84
2022-11-27T10:40:09.397Z,7.84
2022-11-27T10:41:34.355Z,7.85
2022-11-27T10:42:17.911Z,7.85
2022-11-27T10:43:22.044Z,7.85
2022-11-27T10:44:26.337Z,7.86
2022-11-27T10:45:30.694Z,7.86
2022-11-27T10:46:34.811Z,7.86
2022-11-27T10:47:39.105Z,7.87
2022-11-27T10:48:43.342Z,7.86
2022-11-27T10:49:47.587Z,7.86
2022-11-27T10:50:51.872Z,7.87
2022-11-27T10:51:56.117Z,7.88
2022-11-27T10:53:00.275Z,7.89
2022-11-27T10:54:04.577Z,7.90
2022-11-27T10:55:08.720Z,7.90
2022-11-27T10:56:13.024Z,7.89
2022-11-27T10:57:17.323Z,7.87
2022-11-27T10:58:21.410Z,7.86
2022-11-27T10:59:28.769Z,7.86
2022-11-27T11:00:29.993Z,7.87
2022-11-27T11:01:34.388Z,7.88
2022-11-27T11:02:38.487Z,7.89
2022-11-27T11:03:42.666Z,7.89
2022-11-27T11:05:03.232Z,7.88
2022-11-27T11:06:18.422Z,7.88
2022-11-27T11:06:55.382Z,7.87
2022-11-27T11:07:59.878Z,7.86
2022-11-27T11:09:03.940Z,7.85
2022-11-27T11:10:08.106Z,7.84
2022-11-27T11:11:12.510Z,7.84
2022-11-27T11:12:16.613Z,7.84
2022-11-27T11:13:20.863Z,7.84
2022-11-27T11:14:25.028Z,7.83
2022-11-27T11:15:29.333Z,7.82
2022-11-27T11:16:35.760Z,7.81
2022-11-27T11:17:37.915Z,7.80
2022-11-27T11:18:42.104Z,7.79
2022-11-27T11:19:46.351Z,7.79
2022-11-27T11:20:50.622Z,7.77
2022-11-27T11:21:54.799Z,7.77
2022-11-27T11:22:59.070Z,7.77
2022-11-27T11:24:03.249Z,7.77
2022-11-27T11:25:07.591Z,7.77
2022-11-27T11:26:11.912Z,7.77
2022-11-27T11:27:16.105Z,7.78
2022-11-27T11:28:20.319Z,7.78
2022-11-27T11:29:24.477Z,7.78
2022-11-27T11:30:28.697Z,7.79
2022-11-27T11:31:32.912Z,7.79
2022-11-27T11:32:37.234Z,7.80
2022-11-27T11:33:41.570Z,7.81
2022-11-27T11:34:45.595Z,7.83
2022-11-27T11:35:49.805Z,7.84
2022-11-27T11:36:54.125Z,7.86
2022-11-27T11:37:58.351Z,7.89
2022-11-27T11:39:02.640Z,7.91
2022-11-27T11:40:09.774Z,7.93
2022-11-27T11:41:11.027Z,7.93
2022-11-27T11:42:15.323Z,7.88
2022-11-27T11:43:19.562Z,7.88
2022-11-27T11:44:23.848Z,7.89
2022-11-27T11:45:32.319Z,7.91
2022-11-27T11:46:32.544Z,7.93
2022-11-27T11:47:36.538Z,7.95
2022-11-27T11:48:40.872Z,7.96
2022-11-27T11:49:45.296Z,7.98
2022-11-27T11:50:49.422Z,8.01
2022-11-27T11:51:53.724Z,8.03
2022-11-27T11:52:57.953Z,8.05
2022-11-27T11:54:02.261Z,8.06
2022-11-27T11:55:06.459Z,8.04
2022-11-27T11:56:10.702Z,8.05
2022-11-27T11:57:14.984Z,8.03
2022-11-27T11:58:19.128Z,7.98
2022-11-27T11:59:23.365Z,7.97
2022-11-27T12:00:30.915Z,7.96
2022-11-27T12:01:32.010Z,7.98
2022-11-27T12:02:36.279Z,7.98
2022-11-27T12:03:40.458Z,7.98
2022-11-27T12:04:45.207Z,8.01
2022-11-27T12:05:49.151Z,8.03
2022-11-27T12:06:53.293Z,8.03
2022-11-27T12:07:57.525Z,8.04
2022-11-27T12:09:01.738Z,7.99
2022-11-27T12:10:05.977Z,8.01
2022-11-27T12:11:10.223Z,8.03
2022-11-27T12:12:14.391Z,8.05
2022-11-27T12:13:18.577Z,8.07
2022-11-27T12:14:22.896Z,8.10
2022-11-27T12:15:27.139Z,8.12
2022-11-27T12:16:31.407Z,8.11
2022-11-27T12:17:35.646Z,8.12
2022-11-27T12:18:39.904Z,8.13
2022-11-27T12:19:44.126Z,8.16
2022-11-27T12:20:48.376Z,8.17
2022-11-27T12:21:52.780Z,8.21
2022-11-27T12:22:56.917Z,8.23
2022-11-27T12:24:01.182Z,8.26
2022-11-27T12:25:05.477Z,8.29
2022-11-27T12:26:09.728Z,8.34
2022-11-27T12:27:14.027Z,8.38
2022-11-27T12:28:18.286Z,8.41
2022-11-27T12:29:22.561Z,8.44
2022-11-27T12:30:26.759Z,8.46
2022-11-27T12:31:31.170Z,8.47
2022-11-27T12:32:35.360Z,8.50
2022-11-27T12:33:39.620Z,8.53
2022-11-27T12:34:44.058Z,8.55
2022-11-27T12:35:48.022Z,8.56
2022-11-27T12:36:52.318Z,8.60
2022-11-27T12:37:56.597Z,8.63
2022-11-27T12:39:00.710Z,8.65
2022-11-27T12:40:05.018Z,8.65
2022-11-27T12:41:09.292Z,8.64
2022-11-27T12:42:16.699Z,8.61
2022-11-27T12:43:17.761Z,8.58
2022-11-27T12:44:22.045Z,8.56
2022-11-27T12:45:26.248Z,8.53
2022-11-27T12:46:30.453Z,8.49
2022-11-27T12:47:38.809Z,8.46
2022-11-27T12:48:38.837Z,8.43
2022-11-27T12:49:43.053Z,8.40
2022-11-27T12:50:47.353Z,8.38
2022-11-27T12:51:51.633Z,8.35
2022-11-27T12:52:55.850Z,8.33
2022-11-27T12:54:00.142Z,8.31
2022-11-27T12:55:04.305Z,8.30
2022-11-27T12:56:08.440Z,8.29
2022-11-27T12:57:12.736Z,8.29
2022-11-27T12:58:16.933Z,8.29
2022-11-27T12:59:21.244Z,8.31
2022-11-27T13:00:25.472Z,8.29
2022-11-27T13:01:29.806Z,8.31
2022-11-27T13:02:34.097Z,8.26
2022-11-27T13:03:38.321Z,8.24
2022-11-27T13:04:45.551Z,8.22
2022-11-27T13:05:48.899Z,8.21
2022-11-27T13:06:53.118Z,8.18
2022-11-27T13:07:57.443Z,8.20
2022-11-27T13:09:01.619Z,8.22
2022-11-27T13:10:05.877Z,8.24
2022-11-27T13:11:10.069Z,8.26
2022-11-27T13:12:14.332Z,8.25
2022-11-27T13:13:18.611Z,8.26
2022-11-27T13:14:22.758Z,8.25
2022-11-27T13:15:27.016Z,8.23
2022-11-27T13:16:31.326Z,8.21
2022-11-27T13:17:35.496Z,8.13
2022-11-27T13:18:39.800Z,8.10
2022-11-27T13:19:44.013Z,8.09
2022-11-27T13:20:52.179Z,8.08
2022-11-27T13:21:52.525Z,8.07
2022-11-27T13:22:56.843Z,8.06
2022-11-27T13:24:01.114Z,8.05
2022-11-27T13:25:05.366Z,8.04
2022-11-27T13:26:09.541Z,8.04
2022-11-27T13:27:13.666Z,8.04
2022-11-27T13:28:18.027Z,8.04
2022-11-27T13:29:22.297Z,8.04
2022-11-27T13:30:26.547Z,8.02
2022-11-27T13:31:30.762Z,8.01
2022-11-27T13:32:34.979Z,8.00
2022-11-27T13:33:39.272Z,8.00
2022-11-27T13:34:43.590Z,8.00
2022-11-27T13:35:47.792Z,8.00
2022-11-27T13:36:51.949Z,8.00
2022-11-27T13:37:56.378Z,8.01
2022-11-27T13:39:00.509Z,8.01
2022-11-27T13:40:04.756Z,8.01
2022-11-27T13:41:09.001Z,8.02
2022-11-27T13:42:13.301Z,8.01
2022-11-27T13:43:17.508Z,7.98
2022-11-27T13:44:21.753Z,7.94
2022-11-27T13:45:26.037Z,7.89
2022-11-27T13:46:30.250Z,7.86
2022-11-27T13:47:34.512Z,7.83
2022-11-27T13:48:38.710Z,7.81
2022-11-27T13:49:42.875Z,7.81
2022-11-27T13:50:47.205Z,7.79
2022-11-27T13:51:51.480Z,7.79
2022-11-27T13:52:55.734Z,7.75
2022-11-27T13:54:02.807Z,7.73
2022-11-27T13:55:06.151Z,7.72
2022-11-27T13:56:10.394Z,7.71
2022-11-27T13:57:14.651Z,7.68
2022-11-27T13:58:18.995Z,7.68
2022-11-27T13:59:23.146Z,7.70
2022-11-27T14:00:27.314Z,7.70
2022-11-27T14:01:31.646Z,7.71
2022-11-27T14:02:35.867Z,7.72
2022-11-27T14:03:40.047Z,7.73
2022-11-27T14:04:44.210Z,7.74
2022-11-27T14:05:48.494Z,7.75
2022-11-27T14:06:52.759Z,7.75
2022-11-27T14:07:57.214Z,7.75
2022-11-27T14:09:01.282Z,7.74
2022-11-27T14:10:05.531Z,7.73
2022-11-27T14:11:09.806Z,7.73
2022-11-27T14:12:14.067Z,7.73
2022-11-27T14:13:18.295Z,7.72
2022-11-27T14:14:22.653Z,7.72
2022-11-27T14:15:26.799Z,7.69
2022-11-27T14:16:31.170Z,7.67